sensor_id;sensor_type;location;lat;lon;timestamp;temperature;humidity
23769;DHT22;12064;50.890;5.424;2022-11-06T00:05:28;24.00;73.20
23769;DHT22;12064;50.890;5.424;2022-11-06T00:14:40;23.90;73.20
23769;DHT22;12064;50.890;5.424;2022-11-06T00:23:32;23.80;73.40
23769;DHT22;12064;50.890;5.424;2022-11-06T00:32:23;23.60;73.80
23769;DHT22;12064;50.890;5.424;2022-11-06T00:41:15;23.50;73.80
23769;DHT22;12064;50.890;5.424;2022-11-06T00:50:06;23.60;73.80
23769;DHT22;12064;50.890;5.424;2022-11-06T00:59:06;23.50;74.80
23769;DHT22;12064;50.890;5.424;2022-11-06T01:07:56;23.30;74.40
23769;DHT22;12064;50.890;5.424;2022-11-06T01:16:48;23.10;74.80
23769;DHT22;12064;50.890;5.424;2022-11-06T01:25:38;23.00;75.20
23769;DHT22;12064;50.890;5.424;2022-11-06T01:34:29;23.10;75.10
23769;DHT22;12064;50.890;5.424;2022-11-06T01:52:33;22.90;75.30
23769;DHT22;12064;50.890;5.424;2022-11-06T02:01:24;22.90;75.40
23769;DHT22;12064;50.890;5.424;2022-11-06T02:10:15;23.30;74.40
23769;DHT22;12064;50.890;5.424;2022-11-06T02:19:15;23.40;73.60
23769;DHT22;12064;50.890;5.424;2022-11-06T02:28:30;23.40;73.60
23769;DHT22;12064;50.890;5.424;2022-11-06T02:37:31;23.20;73.90
23769;DHT22;12064;50.890;5.424;2022-11-06T02:46:29;23.20;74.00
23769;DHT22;12064;50.890;5.424;2022-11-06T02:55:28;23.10;74.40
23769;DHT22;12064;50.890;5.424;2022-11-06T03:13:23;23.00;74.40
23769;DHT22;12064;50.890;5.424;2022-11-06T03:31:16;22.90;74.40
23769;DHT22;12064;50.890;5.424;2022-11-06T03:40:11;22.90;74.60
23769;DHT22;12064;50.890;5.424;2022-11-06T03:49:09;22.90;74.60
23769;DHT22;12064;50.890;5.424;2022-11-06T03:58:12;22.70;74.80
23769;DHT22;12064;50.890;5.424;2022-11-06T04:07:08;22.80;74.70
23769;DHT22;12064;50.890;5.424;2022-11-06T04:16:00;22.80;74.60
23769;DHT22;12064;50.890;5.424;2022-11-06T04:25:19;22.70;74.90
23769;DHT22;12064;50.890;5.424;2022-11-06T04:52:30;22.50;75.50
23769;DHT22;12064;50.890;5.424;2022-11-06T05:01:21;22.40;75.50
23769;DHT22;12064;50.890;5.424;2022-11-06T05:10:13;22.60;75.10
23769;DHT22;12064;50.890;5.424;2022-11-06T05:19:06;22.50;75.50
23769;DHT22;12064;50.890;5.424;2022-11-06T05:27:57;22.50;75.40
23769;DHT22;12064;50.890;5.424;2022-11-06T05:36:48;22.70;75.00
23769;DHT22;12064;50.890;5.424;2022-11-06T05:45:40;22.30;76.40
23769;DHT22;12064;50.890;5.424;2022-11-06T05:54:31;22.50;76.30
23769;DHT22;12064;50.890;5.424;2022-11-06T06:03:25;23.00;75.10
23769;DHT22;12064;50.890;5.424;2022-11-06T06:12:16;22.90;75.40
23769;DHT22;12064;50.890;5.424;2022-11-06T06:21:07;22.80;75.70
23769;DHT22;12064;50.890;5.424;2022-11-06T06:29:58;23.00;75.40
23769;DHT22;12064;50.890;5.424;2022-11-06T06:38:52;23.30;74.70
23769;DHT22;12064;50.890;5.424;2022-11-06T06:47:43;23.20;74.90
23769;DHT22;12064;50.890;5.424;2022-11-06T06:56:36;23.10;75.10
23769;DHT22;12064;50.890;5.424;2022-11-06T07:05:26;23.00;75.40
23769;DHT22;12064;50.890;5.424;2022-11-06T07:14:19;22.90;75.70
23769;DHT22;12064;50.890;5.424;2022-11-06T07:23:12;23.10;75.40
23769;DHT22;12064;50.890;5.424;2022-11-06T07:32:03;22.90;75.40
23769;DHT22;12064;50.890;5.424;2022-11-06T07:41:10;22.60;76.30
23769;DHT22;12064;50.890;5.424;2022-11-06T07:50:01;22.80;75.60
23769;DHT22;12064;50.890;5.424;2022-11-06T07:58:51;23.00;75.10
23769;DHT22;12064;50.890;5.424;2022-11-06T08:07:43;22.90;75.70
23769;DHT22;12064;50.890;5.424;2022-11-06T08:16:34;23.00;76.80
23769;DHT22;12064;50.890;5.424;2022-11-06T08:25:24;23.40;76.60
23769;DHT22;12064;50.890;5.424;2022-11-06T08:34:30;24.50;72.50
23769;DHT22;12064;50.890;5.424;2022-11-06T08:43:23;24.40;72.00
23769;DHT22;12064;50.890;5.424;2022-11-06T08:52:18;24.40;72.20
23769;DHT22;12064;50.890;5.424;2022-11-06T09:01:09;24.60;71.30
23769;DHT22;12064;50.890;5.424;2022-11-06T09:10:00;24.60;71.10
23769;DHT22;12064;50.890;5.424;2022-11-06T09:18:54;24.60;71.00
23769;DHT22;12064;50.890;5.424;2022-11-06T09:27:49;24.60;70.70
23769;DHT22;12064;50.890;5.424;2022-11-06T09:36:41;24.70;71.50
23769;DHT22;12064;50.890;5.424;2022-11-06T09:45:33;24.90;71.20
23769;DHT22;12064;50.890;5.424;2022-11-06T09:54:41;24.90;71.00
23769;DHT22;12064;50.890;5.424;2022-11-06T10:04:09;24.90;71.30
23769;DHT22;12064;50.890;5.424;2022-11-06T10:13:30;24.90;71.50
23769;DHT22;12064;50.890;5.424;2022-11-06T10:22:45;24.60;72.40
23769;DHT22;12064;50.890;5.424;2022-11-06T10:32:01;24.90;72.20
23769;DHT22;12064;50.890;5.424;2022-11-06T10:40:55;24.80;72.90
23769;DHT22;12064;50.890;5.424;2022-11-06T10:49:55;25.20;72.40
23769;DHT22;12064;50.890;5.424;2022-11-06T10:58:47;25.10;71.50
23769;DHT22;12064;50.890;5.424;2022-11-06T11:07:38;25.10;70.90
23769;DHT22;12064;50.890;5.424;2022-11-06T11:16:32;25.00;71.30
23769;DHT22;12064;50.890;5.424;2022-11-06T11:25:46;25.30;71.00
23769;DHT22;12064;50.890;5.424;2022-11-06T11:34:46;24.90;71.60
23769;DHT22;12064;50.890;5.424;2022-11-06T11:43:38;25.20;71.40
23769;DHT22;12064;50.890;5.424;2022-11-06T11:52:32;25.30;71.50
23769;DHT22;12064;50.890;5.424;2022-11-06T12:01:38;25.10;71.80
23769;DHT22;12064;50.890;5.424;2022-11-06T12:10:43;25.10;71.70
23769;DHT22;12064;50.890;5.424;2022-11-06T12:19:36;25.20;71.50
23769;DHT22;12064;50.890;5.424;2022-11-06T12:28:36;25.30;71.40
23769;DHT22;12064;50.890;5.424;2022-11-06T12:37:50;25.10;70.80
23769;DHT22;12064;50.890;5.424;2022-11-06T12:55:58;25.30;71.00
23769;DHT22;12064;50.890;5.424;2022-11-06T13:05:02;25.40;72.10
23769;DHT22;12064;50.890;5.424;2022-11-06T13:15:04;25.30;71.50
23769;DHT22;12064;50.890;5.424;2022-11-06T13:23:40;25.10;71.60
23769;DHT22;12064;50.890;5.424;2022-11-06T13:32:35;24.90;71.70
23769;DHT22;12064;50.890;5.424;2022-11-06T13:41:29;24.90;71.60
23769;DHT22;12064;50.890;5.424;2022-11-06T13:59:44;24.70;71.60
23769;DHT22;12064;50.890;5.424;2022-11-06T14:08:53;24.50;71.80
23769;DHT22;12064;50.890;5.424;2022-11-06T14:17:58;24.50;72.50
23769;DHT22;12064;50.890;5.424;2022-11-06T14:26:49;24.80;71.90
23769;DHT22;12064;50.890;5.424;2022-11-06T14:44:42;24.90;72.30
23769;DHT22;12064;50.890;5.424;2022-11-06T14:53:51;25.10;71.90
23769;DHT22;12064;50.890;5.424;2022-11-06T15:02:43;25.20;72.10
23769;DHT22;12064;50.890;5.424;2022-11-06T15:20:32;25.30;72.00
23769;DHT22;12064;50.890;5.424;2022-11-06T15:29:30;25.30;71.60
23769;DHT22;12064;50.890;5.424;2022-11-06T15:38:34;25.20;71.60
23769;DHT22;12064;50.890;5.424;2022-11-06T15:47:27;25.40;71.70
23769;DHT22;12064;50.890;5.424;2022-11-06T15:56:25;25.40;71.90
23769;DHT22;12064;50.890;5.424;2022-11-06T16:05:21;25.20;72.50
23769;DHT22;12064;50.890;5.424;2022-11-06T16:14:13;25.50;71.60
23769;DHT22;12064;50.890;5.424;2022-11-06T16:23:04;25.60;71.70
23769;DHT22;12064;50.890;5.424;2022-11-06T16:32:14;25.70;71.50
23769;DHT22;12064;50.890;5.424;2022-11-06T16:41:07;25.60;72.10
23769;DHT22;12064;50.890;5.424;2022-11-06T16:50:01;25.90;71.40
23769;DHT22;12064;50.890;5.424;2022-11-06T16:59:07;26.10;71.10
23769;DHT22;12064;50.890;5.424;2022-11-06T17:17:24;25.80;72.40
23769;DHT22;12064;50.890;5.424;2022-11-06T17:26:32;25.80;71.10
23769;DHT22;12064;50.890;5.424;2022-11-06T17:35:24;25.90;70.70
23769;DHT22;12064;50.890;5.424;2022-11-06T17:44:21;25.70;70.70
23769;DHT22;12064;50.890;5.424;2022-11-06T17:53:12;25.50;70.60
23769;DHT22;12064;50.890;5.424;2022-11-06T18:02:04;25.20;72.00
23769;DHT22;12064;50.890;5.424;2022-11-06T18:10:56;25.10;72.80
23769;DHT22;12064;50.890;5.424;2022-11-06T18:19:47;25.60;71.00
23769;DHT22;12064;50.890;5.424;2022-11-06T18:28:40;25.60;70.60
23769;DHT22;12064;50.890;5.424;2022-11-06T18:37:30;25.70;70.50
23769;DHT22;12064;50.890;5.424;2022-11-06T18:46:21;25.70;71.10
23769;DHT22;12064;50.890;5.424;2022-11-06T18:55:12;25.90;70.90
23769;DHT22;12064;50.890;5.424;2022-11-06T19:04:06;26.00;70.70
23769;DHT22;12064;50.890;5.424;2022-11-06T19:13:00;25.70;71.10
23769;DHT22;12064;50.890;5.424;2022-11-06T19:21:50;25.60;70.90
23769;DHT22;12064;50.890;5.424;2022-11-06T19:30:41;25.60;70.50
23769;DHT22;12064;50.890;5.424;2022-11-06T19:39:54;25.50;70.60
23769;DHT22;12064;50.890;5.424;2022-11-06T19:48:45;25.40;70.70
23769;DHT22;12064;50.890;5.424;2022-11-06T19:57:38;25.80;70.10
23769;DHT22;12064;50.890;5.424;2022-11-06T20:06:32;25.80;70.60
23769;DHT22;12064;50.890;5.424;2022-11-06T20:15:24;25.90;70.10
23769;DHT22;12064;50.890;5.424;2022-11-06T20:24:15;25.80;70.10
23769;DHT22;12064;50.890;5.424;2022-11-06T20:33:06;25.50;70.20
23769;DHT22;12064;50.890;5.424;2022-11-06T20:41:57;25.40;70.40
23769;DHT22;12064;50.890;5.424;2022-11-06T20:50:59;24.90;72.30
23769;DHT22;12064;50.890;5.424;2022-11-06T20:59:51;25.60;70.60
23769;DHT22;12064;50.890;5.424;2022-11-06T21:08:42;25.70;70.60
23769;DHT22;12064;50.890;5.424;2022-11-06T21:17:33;25.80;70.60
23769;DHT22;12064;50.890;5.424;2022-11-06T21:26:28;25.70;70.80
23769;DHT22;12064;50.890;5.424;2022-11-06T21:35:19;25.70;71.00
23769;DHT22;12064;50.890;5.424;2022-11-06T21:44:16;25.50;71.20
23769;DHT22;12064;50.890;5.424;2022-11-06T21:53:08;25.00;72.60
23769;DHT22;12064;50.890;5.424;2022-11-06T22:02:18;24.70;74.20
23769;DHT22;12064;50.890;5.424;2022-11-06T22:20:19;24.30;73.80
23769;DHT22;12064;50.890;5.424;2022-11-06T22:29:12;24.20;73.90
23769;DHT22;12064;50.890;5.424;2022-11-06T22:38:04;24.10;74.10
23769;DHT22;12064;50.890;5.424;2022-11-06T22:47:00;24.20;74.50
23769;DHT22;12064;50.890;5.424;2022-11-06T22:55:54;24.80;71.30
23769;DHT22;12064;50.890;5.424;2022-11-06T23:04:45;24.80;71.20
23769;DHT22;12064;50.890;5.424;2022-11-06T23:13:37;24.70;71.20
23769;DHT22;12064;50.890;5.424;2022-11-06T23:22:31;24.60;71.40
23769;DHT22;12064;50.890;5.424;2022-11-06T23:31:25;24.60;71.30
23769;DHT22;12064;50.890;5.424;2022-11-06T23:40:16;24.50;71.40
23769;DHT22;12064;50.890;5.424;2022-11-06T23:49:06;24.50;71.50
23769;DHT22;12064;50.890;5.424;2022-11-06T23:57:57;24.40;71.50
